Time;durP1;ratioP1;P1;durP2;ratioP2;P2;SDS_P1;SDS_P2;PMS_P1;PMS_P2;Temp;Humidity;BMP_temperature;BMP_pressure;BME280_temperature;BME280_humidity;BME280_pressure;Samples;Min_cycle;Max_cycle;Signal;HPM_P1;HPM_P2
2023/01/01 00:00:06;;;;;;;24.27;9.07;;;13.70;99.90;;;;;;5027326;28;20423;-81
2023/01/01 00:02:33;;;;;;;16.48;7.32;;;13.80;99.90;;;;;;5025986;28;20446;-78
2023/01/01 00:04:59;;;;;;;20.10;7.70;;;13.70;99.90;;;;;;5027371;28;20052;-79
2023/01/01 00:07:24;;;;;;;15.98;7.50;;;13.70;99.90;;;;;;5027048;28;20041;-76
2023/01/01 00:12:34;;;;;;;19.70;7.10;;;13.70;99.90;;;;;;5030315;28;20071;-81
2023/01/01 00:15:00;;;;;;;17.33;6.70;;;13.70;99.90;;;;;;5030665;28;20049;-80
2023/01/01 00:17:28;;;;;;;20.33;7.57;;;13.70;99.90;;;;;;5012402;28;20046;-78
2023/01/01 00:19:53;;;;;;;18.58;6.57;;;13.80;99.90;;;;;;4990771;28;20121;-78
2023/01/01 00:22:19;;;;;;;21.77;6.68;;;13.60;99.90;;;;;;4990413;28;20743;-78
2023/01/01 00:24:45;;;;;;;16.27;7.13;;;13.60;99.90;;;;;;4990361;28;20058;-79
2023/01/01 00:27:10;;;;;;;19.88;7.63;;;13.60;99.90;;;;;;4990548;28;20405;-79
2023/01/01 00:29:36;;;;;;;22.65;8.23;;;13.60;99.90;;;;;;4990453;28;20061;-79
2023/01/01 00:32:01;;;;;;;21.67;9.95;;;13.50;99.90;;;;;;4990391;28;20046;-78
2023/01/01 00:34:27;;;;;;;23.05;9.10;;;13.50;99.90;;;;;;4990025;28;20050;-78
2023/01/01 00:36:53;;;;;;;23.05;9.57;;;13.50;99.90;;;;;;4990299;28;20050;-78
2023/01/01 00:39:18;;;;;;;21.15;10.65;;;13.50;99.90;;;;;;4990292;28;20050;-78
2023/01/01 00:41:44;;;;;;;26.20;10.05;;;13.40;99.90;;;;;;4990377;28;20038;-78
2023/01/01 00:44:09;;;;;;;23.90;9.90;;;13.40;99.90;;;;;;4990294;28;20088;-83
2023/01/01 00:46:35;;;;;;;34.10;10.98;;;13.40;99.90;;;;;;4990493;28;20125;-78
2023/01/01 00:49:01;;;;;;;27.40;11.30;;;13.40;99.90;;;;;;4990210;28;20084;-80
2023/01/01 00:51:26;;;;;;;26.48;12.00;;;13.50;99.90;;;;;;4992022;28;20046;-77
2023/01/01 00:53:52;;;;;;;23.05;12.55;;;13.40;99.90;;;;;;5009983;28;20038;-78
2023/01/01 00:56:18;;;;;;;28.23;11.43;;;13.40;99.90;;;;;;5009923;28;20053;-79
2023/01/01 00:58:44;;;;;;;26.83;11.75;;;13.40;99.90;;;;;;5009514;28;20042;-79
2023/01/01 01:01:10;;;;;;;27.67;13.20;;;13.40;99.90;;;;;;5009828;28;20049;-85
2023/01/01 01:03:38;;;;;;;34.70;14.10;;;13.40;99.90;;;;;;5009563;28;20045;-79
2023/01/01 01:06:03;;;;;;;26.10;15.68;;;13.40;99.90;;;;;;5008161;28;20049;-80
2023/01/01 01:08:33;;;;;;;29.30;18.92;;;13.40;99.90;;;;;;5009464;28;20099;-78
2023/01/01 01:11:11;;;;;;;31.38;16.48;;;13.40;99.90;;;;;;5005463;28;20038;-77
2023/01/01 01:13:38;;;;;;;36.03;20.85;;;13.40;99.90;;;;;;4989275;28;20088;-78
2023/01/01 01:16:20;;;;;;;36.30;18.63;;;13.40;99.90;;;;;;4989718;28;20101;-78
2023/01/01 01:18:46;;;;;;;35.53;18.70;;;13.30;99.90;;;;;;4989730;28;20505;-80
2023/01/01 01:21:17;;;;;;;36.70;21.83;;;13.30;99.90;;;;;;4989632;28;20151;-77
2023/01/01 01:23:43;;;;;;;36.38;20.98;;;13.20;99.90;;;;;;4988936;28;20042;-78
2023/01/01 01:26:18;;;;;;;43.72;23.48;;;13.20;99.90;;;;;;4989427;28;20492;-78
2023/01/01 01:28:44;;;;;;;42.58;22.48;;;13.40;99.90;;;;;;4989785;28;20107;-77
2023/01/01 01:31:10;;;;;;;37.25;23.42;;;13.20;99.90;;;;;;4989973;28;20054;-79
2023/01/01 01:33:36;;;;;;;37.47;24.92;;;13.10;99.90;;;;;;4989591;28;20054;-79
2023/01/01 01:36:03;;;;;;;47.05;24.98;;;13.10;99.90;;;;;;4989389;28;20042;-79
2023/01/01 01:38:28;;;;;;;36.88;21.85;;;13.00;99.90;;;;;;4989693;28;20129;-77
2023/01/01 01:40:54;;;;;;;40.28;24.27;;;13.00;99.90;;;;;;4989365;28;20528;-78
2023/01/01 01:43:43;;;;;;;42.97;20.00;;;13.00;99.90;;;;;;5000593;28;20041;-78
2023/01/01 01:46:16;;;;;;;33.28;22.80;;;13.00;99.90;;;;;;5029231;28;20183;-78
2023/01/01 01:48:45;;;;;;;46.00;24.23;;;12.90;99.90;;;;;;5029496;28;20495;-81
2023/01/01 01:51:14;;;;;;;38.20;23.63;;;12.80;99.90;;;;;;5029016;28;20564;-80
2023/01/01 01:53:53;;;;;;;43.00;24.88;;;12.80;99.90;;;;;;5012805;28;20111;-79
2023/01/01 01:56:26;;;;;;;45.42;27.88;;;12.80;99.90;;;;;;5029072;28;20404;-79
2023/01/01 01:58:52;;;;;;;47.55;25.77;;;12.70;99.90;;;;;;5028939;28;20186;-80
2023/01/01 02:01:17;;;;;;;46.10;28.88;;;12.70;99.90;;;;;;5029049;28;20144;-77
2023/01/01 02:03:58;;;;;;;50.58;30.02;;;12.70;99.90;;;;;;5028869;28;20061;-81
2023/01/01 02:06:26;;;;;;;49.25;28.50;;;12.60;99.90;;;;;;5028404;28;20045;-81
2023/01/01 02:08:52;;;;;;;45.17;27.08;;;12.60;99.90;;;;;;5028684;28;20053;-79
2023/01/01 02:11:18;;;;;;;56.63;31.27;;;12.60;99.90;;;;;;5020663;28;20140;-77
2023/01/01 02:13:44;;;;;;;53.65;34.05;;;13.10;99.90;;;;;;5008874;28;20124;-80
2023/01/01 02:16:21;;;;;;;48.08;31.92;;;12.60;99.90;;;;;;4992496;28;20058;-82
2023/01/01 02:19:05;;;;;;;54.15;32.15;;;12.50;99.90;;;;;;5009049;28;20081;-78
2023/01/01 02:21:40;;;;;;;50.55;32.38;;;12.50;99.90;;;;;;5009013;28;20042;-81
2023/01/01 02:24:12;;;;;;;45.90;31.38;;;12.50;99.90;;;;;;4990526;28;20062;-81
2023/01/01 02:26:41;;;;;;;47.92;30.60;;;12.50;99.90;;;;;;4989023;28;20051;-78
2023/01/01 02:29:24;;;;;;;44.53;26.38;;;12.50;99.90;;;;;;4988524;28;20081;-78
2023/01/01 02:31:58;;;;;;;41.15;25.08;;;13.00;99.90;;;;;;4988774;28;20099;-82
2023/01/01 02:34:28;;;;;;;40.38;25.77;;;12.60;99.90;;;;;;4988400;28;20571;-79
2023/01/01 02:36:56;;;;;;;36.72;23.13;;;12.70;99.90;;;;;;4987456;28;20099;-78
2023/01/01 02:39:25;;;;;;;43.28;23.83;;;12.70;99.90;;;;;;4988326;28;20058;-84
2023/01/01 02:41:55;;;;;;;40.15;23.75;;;12.60;99.90;;;;;;4988434;28;20490;-83
2023/01/01 02:44:23;;;;;;;47.00;23.95;;;12.90;99.90;;;;;;4987185;28;20562;-78
2023/01/01 02:46:49;;;;;;;37.13;21.15;;;12.60;99.90;;;;;;4988475;28;20047;-79
2023/01/01 02:49:15;;;;;;;32.70;20.75;;;12.60;99.90;;;;;;4988321;28;20062;-79
2023/01/01 02:52:05;;;;;;;38.15;20.35;;;12.60;99.90;;;;;;4988060;28;20088;-77
2023/01/01 02:54:42;;;;;;;31.20;18.48;;;12.50;99.90;;;;;;4987771;28;20559;-78
2023/01/01 02:57:34;;;;;;;34.72;17.40;;;12.70;99.90;;;;;;4988195;28;20054;-84
2023/01/01 03:00:18;;;;;;;28.35;16.70;;;12.60;99.90;;;;;;4988033;28;20497;-79
2023/01/01 03:03:05;;;;;;;33.05;17.17;;;12.60;99.90;;;;;;4986667;28;20049;-80
2023/01/01 03:08:43;;;;;;;28.67;13.93;;;12.60;99.90;;;;;;4986999;28;20058;-80
2023/01/01 03:11:13;;;;;;;34.08;15.43;;;12.50;99.90;;;;;;4996357;28;20054;-80
2023/01/01 03:13:47;;;;;;;28.85;15.30;;;12.90;99.90;;;;;;5007805;28;20046;-80
2023/01/01 03:16:31;;;;;;;25.13;12.35;;;12.40;99.90;;;;;;5043071;28;20059;-81
2023/01/01 03:19:11;;;;;;;30.17;15.00;;;12.30;99.90;;;;;;5110895;28;20090;-78
2023/01/01 03:21:42;;;;;;;31.67;14.90;;;12.30;99.90;;;;;;5110885;28;20145;-81
2023/01/01 03:24:26;;;;;;;34.10;14.15;;;12.00;99.90;;;;;;5110702;28;20048;-80
2023/01/01 03:26:55;;;;;;;24.45;13.90;;;12.00;99.90;;;;;;5110518;28;20146;-82
2023/01/01 03:29:23;;;;;;;26.00;13.95;;;12.00;99.90;;;;;;5110666;28;20047;-80
2023/01/01 03:31:54;;;;;;;29.35;12.80;;;12.60;99.90;;;;;;5110136;28;20506;-79
2023/01/01 03:34:26;;;;;;;31.17;12.13;;;12.00;99.90;;;;;;5108903;28;20102;-79
2023/01/01 03:36:57;;;;;;;29.75;13.60;;;12.30;99.90;;;;;;5110372;28;20398;-79
2023/01/01 03:39:44;;;;;;;23.80;11.02;;;12.10;99.90;;;;;;5110254;28;20044;-84
2023/01/01 03:42:34;;;;;;;26.02;12.27;;;11.60;99.90;;;;;;5022460;28;20057;-78
2023/01/01 03:45:22;;;;;;;25.55;12.07;;;11.50;99.90;;;;;;5007299;28;20137;-78
2023/01/01 03:47:47;;;;;;;21.80;10.73;;;11.50;99.90;;;;;;4990356;28;20047;-78
2023/01/01 03:50:14;;;;;;;25.50;12.30;;;11.40;99.90;;;;;;4987427;28;20053;-82
2023/01/01 03:53:02;;;;;;;21.42;8.65;;;11.30;99.90;;;;;;4987933;28;20086;-78
2023/01/01 03:55:33;;;;;;;20.90;8.85;;;11.30;99.90;;;;;;4987638;28;20085;-78
2023/01/01 03:58:26;;;;;;;17.92;7.32;;;11.30;99.90;;;;;;4987551;28;20042;-82
2023/01/01 04:01:01;;;;;;;16.70;7.45;;;11.40;99.90;;;;;;4983510;28;20067;-82
2023/01/01 04:03:29;;;;;;;16.88;6.03;;;11.40;99.90;;;;;;4987709;28;20054;-78
2023/01/01 04:05:55;;;;;;;16.27;5.65;;;11.50;99.90;;;;;;4987746;28;20559;-80
2023/01/01 04:08:21;;;;;;;13.80;4.68;;;12.20;99.90;;;;;;4987769;28;20035;-79
2023/01/01 04:10:52;;;;;;;17.10;4.50;;;12.10;99.90;;;;;;4992379;28;20061;-79
2023/01/01 04:13:17;;;;;;;16.65;4.63;;;11.70;99.90;;;;;;5006418;28;20057;-81
2023/01/01 04:15:43;;;;;;;16.85;4.55;;;12.20;99.90;;;;;;5007083;28;20046;-85
2023/01/01 04:18:09;;;;;;;16.00;4.22;;;12.40;99.90;;;;;;5005426;28;20146;-79
2023/01/01 04:20:34;;;;;;;16.33;4.30;;;11.90;99.90;;;;;;5007017;28;20050;-81
2023/01/01 04:23:01;;;;;;;21.17;4.05;;;11.90;99.90;;;;;;5006626;28;20083;-83
2023/01/01 04:25:28;;;;;;;14.48;3.78;;;11.90;99.90;;;;;;5006807;28;20389;-77
2023/01/01 04:27:53;;;;;;;16.70;4.55;;;11.70;99.90;;;;;;5006246;28;20045;-82
2023/01/01 04:30:19;;;;;;;20.17;4.20;;;12.30;99.90;;;;;;5007152;28;20046;-77
2023/01/01 04:32:45;;;;;;;21.20;4.60;;;11.90;99.90;;;;;;5007064;28;20050;-80
2023/01/01 04:35:13;;;;;;;17.13;3.50;;;11.60;99.90;;;;;;5006968;28;20048;-81
2023/01/01 04:37:42;;;;;;;28.23;4.90;;;11.80;99.90;;;;;;5006929;28;20049;-82
2023/01/01 04:40:08;;;;;;;21.27;5.90;;;12.20;99.90;;;;;;5006600;28;20099;-83
2023/01/01 04:42:34;;;;;;;22.33;6.25;;;11.60;99.90;;;;;;4986664;28;20061;-81
2023/01/01 04:45:00;;;;;;;16.58;5.88;;;12.00;99.90;;;;;;5001833;28;20615;-81
2023/01/01 04:47:26;;;;;;;20.33;6.75;;;12.20;99.90;;;;;;4987195;28;20080;-81
2023/01/01 04:49:52;;;;;;;17.55;5.80;;;11.50;99.90;;;;;;4987011;28;20141;-79
2023/01/01 04:52:18;;;;;;;16.65;5.85;;;11.50;99.90;;;;;;4986688;28;20058;-81
2023/01/01 04:54:44;;;;;;;22.73;6.15;;;12.00;99.90;;;;;;4985464;28;20149;-80
2023/01/01 04:57:10;;;;;;;26.08;6.18;;;11.60;99.90;;;;;;4986856;28;20121;-80
2023/01/01 04:59:35;;;;;;;17.20;4.35;;;11.50;99.90;;;;;;4988080;28;20138;-80
2023/01/01 05:02:01;;;;;;;11.70;3.58;;;12.30;99.90;;;;;;4990215;28;20074;-82
2023/01/01 05:04:27;;;;;;;14.00;3.63;;;11.50;99.90;;;;;;4988893;28;20054;-79
2023/01/01 05:06:52;;;;;;;20.08;2.88;;;11.50;99.90;;;;;;4990010;28;20064;-78
2023/01/01 05:09:18;;;;;;;14.35;3.22;;;11.90;99.90;;;;;;4990079;28;20554;-79
2023/01/01 05:11:44;;;;;;;12.55;3.28;;;11.60;99.90;;;;;;4989679;28;20495;-79
2023/01/01 05:14:09;;;;;;;15.23;3.17;;;11.60;99.90;;;;;;4989471;28;20071;-80
2023/01/01 05:16:37;;;;;;;14.00;2.38;;;11.60;99.90;;;;;;4988552;28;20050;-77
2023/01/01 05:19:03;;;;;;;10.23;3.28;;;11.60;99.90;;;;;;4990036;28;20457;-77
2023/01/01 05:21:33;;;;;;;18.05;3.60;;;12.00;99.90;;;;;;4989901;28;20107;-81
2023/01/01 05:24:01;;;;;;;14.07;3.20;;;11.70;99.90;;;;;;4988307;28;20416;-80
2023/01/01 05:26:35;;;;;;;9.68;2.15;;;11.90;99.90;;;;;;4989808;28;20069;-78
2023/01/01 05:29:02;;;;;;;14.20;3.17;;;11.70;99.90;;;;;;4989552;28;20050;-78
2023/01/01 05:31:31;;;;;;;16.88;2.92;;;11.70;99.90;;;;;;4987865;28;20111;-81
2023/01/01 05:33:57;;;;;;;14.93;2.83;;;12.30;99.90;;;;;;4989654;28;20107;-79
2023/01/01 05:36:26;;;;;;;13.32;2.63;;;12.20;99.90;;;;;;4989543;28;20728;-78
2023/01/01 05:38:53;;;;;;;14.20;3.00;;;11.70;99.90;;;;;;4989454;28;20054;-78
2023/01/01 05:41:20;;;;;;;10.52;2.45;;;12.30;99.90;;;;;;4999873;28;20069;-80
2023/01/01 05:43:46;;;;;;;13.32;2.53;;;12.20;99.90;;;;;;5009012;28;20110;-78
2023/01/01 05:46:21;;;;;;;13.23;2.30;;;12.30;99.90;;;;;;5008851;28;20556;-80
2023/01/01 05:48:47;;;;;;;;;;;11.70;99.90;;;;;;4991939;28;20050;-80
2023/01/01 05:51:16;;;;;;;13.50;1.65;;;11.70;99.90;;;;;;5007667;28;19982;-79
2023/01/01 05:53:43;;;;;;;10.30;2.10;;;11.70;99.90;;;;;;5008865;28;20504;-80
2023/01/01 05:56:09;;;;;;;12.32;2.00;;;11.70;99.90;;;;;;5008383;28;20054;-77
2023/01/01 05:58:35;;;;;;;10.13;2.28;;;11.70;99.90;;;;;;5008909;28;20088;-77
2023/01/01 06:01:09;;;;;;;6.50;2.25;;;11.80;99.90;;;;;;5008588;28;20123;-79
2023/01/01 06:03:36;;;;;;;7.45;1.67;;;11.60;99.90;;;;;;5008759;28;20050;-79
2023/01/01 06:06:11;;;;;;;11.48;2.05;;;11.60;99.90;;;;;;5008545;28;20063;-77
2023/01/01 06:08:36;;;;;;;11.10;1.55;;;11.70;99.90;;;;;;5008116;28;20056;-79
2023/01/01 06:11:05;;;;;;;6.20;1.52;;;11.90;99.90;;;;;;5008007;28;20041;-76
2023/01/01 06:13:31;;;;;;;13.65;1.85;;;11.60;99.90;;;;;;5008753;28;20046;-78
2023/01/01 06:15:58;;;;;;;9.82;1.98;;;12.20;99.90;;;;;;5008519;28;20392;-79
2023/01/01 06:18:25;;;;;;;6.03;1.10;;;11.80;99.90;;;;;;5008040;28;20584;-79
2023/01/01 06:20:51;;;;;;;14.60;1.55;;;11.80;99.90;;;;;;5008505;28;20076;-79
2023/01/01 06:23:17;;;;;;;10.18;1.77;;;11.60;99.90;;;;;;5008627;28;20034;-78
2023/01/01 06:25:43;;;;;;;11.07;2.13;;;12.00;99.90;;;;;;5008411;28;20069;-78
2023/01/01 06:28:09;;;;;;;9.98;1.80;;;11.50;99.90;;;;;;5008488;28;20057;-79
2023/01/01 06:30:36;;;;;;;7.35;2.03;;;11.70;99.90;;;;;;5008406;28;20493;-80
2023/01/01 06:33:02;;;;;;;8.55;1.08;;;11.70;99.90;;;;;;5007998;28;20046;-79
2023/01/01 06:35:28;;;;;;;8.48;2.15;;;11.90;99.90;;;;;;5006971;28;20049;-77
2023/01/01 06:37:54;;;;;;;6.85;1.10;;;12.00;99.90;;;;;;5008030;28;20431;-78
2023/01/01 06:40:20;;;;;;;8.63;1.50;;;11.40;99.90;;;;;;5002859;28;20107;-78
2023/01/01 06:42:45;;;;;;;8.70;1.75;;;11.80;99.90;;;;;;4988708;28;20058;-79
2023/01/01 06:45:12;;;;;;;9.90;1.45;;;11.80;99.90;;;;;;4988994;28;20035;-76
2023/01/01 06:47:37;;;;;;;10.13;1.50;;;11.60;99.90;;;;;;4988560;28;20042;-80
2023/01/01 06:50:04;;;;;;;7.57;1.02;;;11.50;99.90;;;;;;4988448;28;20666;-79
2023/01/01 06:52:30;;;;;;;10.23;1.30;;;11.30;99.90;;;;;;5003378;28;20116;-77
2023/01/01 06:54:56;;;;;;;9.73;1.52;;;11.20;99.90;;;;;;4988272;28;20046;-80
2023/01/01 06:57:22;;;;;;;11.63;1.67;;;11.30;99.90;;;;;;4988397;28;20135;-79
2023/01/01 06:59:48;;;;;;;12.77;1.70;;;11.20;99.90;;;;;;4988389;28;20484;-79
2023/01/01 07:02:14;;;;;;;11.63;1.30;;;11.20;99.90;;;;;;4988469;28;20053;-77
2023/01/01 07:04:39;;;;;;;13.82;1.77;;;11.20;99.90;;;;;;4986500;28;20058;-79
2023/01/01 07:07:05;;;;;;;8.93;1.52;;;11.40;99.90;;;;;;4988330;28;20053;-76
2023/01/01 07:09:30;;;;;;;12.40;1.35;;;11.70;99.90;;;;;;4988179;28;20064;-77
2023/01/01 07:11:56;;;;;;;12.35;2.67;;;11.20;99.90;;;;;;4986494;28;20481;-77
2023/01/01 07:14:22;;;;;;;14.73;2.03;;;11.20;99.90;;;;;;4988179;28;20038;-79
2023/01/01 07:16:47;;;;;;;13.43;2.40;;;11.10;99.90;;;;;;4986674;28;20123;-77
2023/01/01 07:19:16;;;;;;;13.63;2.63;;;11.20;99.90;;;;;;4987750;28;20743;-78
2023/01/01 07:22:00;;;;;;;18.92;2.70;;;11.10;99.90;;;;;;4987169;28;20043;-79
2023/01/01 07:24:25;;;;;;;16.17;1.88;;;11.40;99.90;;;;;;4986478;28;20119;-77
2023/01/01 07:26:51;;;;;;;14.82;2.60;;;11.50;99.90;;;;;;4987076;28;20942;-77
2023/01/01 07:29:17;;;;;;;21.45;2.20;;;11.10;99.90;;;;;;4988004;28;20507;-78
2023/01/01 07:31:43;;;;;;;14.23;1.85;;;11.40;99.90;;;;;;4987835;28;20050;-79
2023/01/01 07:34:13;;;;;;;19.50;3.13;;;11.00;99.90;;;;;;4987873;28;20099;-80
2023/01/01 07:36:38;;;;;;;17.27;2.38;;;11.00;99.90;;;;;;4986092;28;20588;-79
2023/01/01 07:39:04;;;;;;;12.95;2.72;;;11.00;99.90;;;;;;5003007;28;20081;-79
2023/01/01 07:41:30;;;;;;;22.88;3.10;;;11.40;99.90;;;;;;5007167;28;20038;-78
2023/01/01 07:43:55;;;;;;;15.77;3.25;;;11.50;99.90;;;;;;5007479;28;20054;-79
2023/01/01 07:46:21;;;;;;;12.82;2.38;;;11.00;99.90;;;;;;5007280;28;20141;-77
2023/01/01 07:48:46;;;;;;;16.02;2.92;;;11.60;99.90;;;;;;5007210;28;20061;-80
2023/01/01 07:51:12;;;;;;;15.35;2.15;;;11.10;99.90;;;;;;5005796;28;20089;-77
2023/01/01 07:53:38;;;;;;;15.27;2.42;;;11.50;99.90;;;;;;5007124;28;20042;-76
2023/01/01 07:56:04;;;;;;;18.48;3.15;;;11.50;99.90;;;;;;5006970;28;20132;-78
2023/01/01 07:58:30;;;;;;;20.95;2.78;;;11.00;99.90;;;;;;5005646;28;20073;-77
2023/01/01 08:00:56;;;;;;;18.63;2.53;;;11.00;99.90;;;;;;5007152;28;20121;-78
2023/01/01 08:03:21;;;;;;;11.80;2.72;;;11.00;99.90;;;;;;5006564;28;20481;-77
2023/01/01 08:05:47;;;;;;;14.68;2.78;;;11.20;99.90;;;;;;4987396;28;20058;-78
2023/01/01 08:08:13;;;;;;;20.17;2.58;;;11.60;99.90;;;;;;4987504;28;20134;-78
2023/01/01 08:10:39;;;;;;;19.23;2.95;;;11.50;99.90;;;;;;4987308;28;20050;-80
2023/01/01 08:13:06;;;;;;;18.23;2.95;;;11.50;99.90;;;;;;4987437;28;20085;-78
2023/01/01 08:15:33;;;;;;;18.42;3.30;;;10.90;99.90;;;;;;4986335;28;20050;-78
2023/01/01 08:18:03;;;;;;;23.27;3.40;;;10.90;99.90;;;;;;4987093;28;20645;-81
2023/01/01 08:20:31;;;;;;;18.98;3.85;;;10.90;99.90;;;;;;4987464;28;20050;-76
2023/01/01 08:22:57;;;;;;;22.00;2.90;;;10.90;99.90;;;;;;4987092;28;20081;-78
2023/01/01 08:25:22;;;;;;;17.55;2.90;;;10.90;99.90;;;;;;4999331;28;20058;-78
2023/01/01 08:27:48;;;;;;;16.95;2.95;;;11.50;99.90;;;;;;5006717;28;20062;-77
2023/01/01 08:30:15;;;;;;;25.15;3.60;;;11.10;99.90;;;;;;5006940;28;20108;-78
2023/01/01 08:32:41;;;;;;;21.35;3.53;;;11.40;99.90;;;;;;5008612;28;20071;-79
2023/01/01 08:35:07;;;;;;;25.63;6.25;;;11.00;99.90;;;;;;5003459;28;20050;-76
2023/01/01 08:37:33;;;;;;;15.70;2.22;;;10.90;99.90;;;;;;4990170;28;20547;-77
2023/01/01 08:39:58;;;;;;;20.67;3.00;;;11.00;99.90;;;;;;4990335;28;20046;-78
2023/01/01 08:42:24;;;;;;;17.60;3.00;;;11.40;99.90;;;;;;4990463;28;20050;-76
2023/01/01 08:44:50;;;;;;;25.80;3.38;;;10.90;99.90;;;;;;4990498;28;20053;-78
2023/01/01 08:47:21;;;;;;;21.08;3.58;;;11.40;99.90;;;;;;4990588;28;20464;-78
2023/01/01 08:49:47;;;;;;;25.27;3.40;;;11.30;99.90;;;;;;4990508;28;20095;-77
2023/01/01 08:52:14;;;;;;;29.25;3.97;;;11.50;99.90;;;;;;4989114;28;20054;-77
2023/01/01 08:54:40;;;;;;;20.05;2.80;;;11.70;99.90;;;;;;4989028;28;20054;-76
2023/01/01 08:57:06;;;;;;;25.70;2.30;;;10.90;99.90;;;;;;4990569;28;20058;-77
2023/01/01 08:59:31;;;;;;;13.57;2.50;;;11.50;99.90;;;;;;4990425;28;20130;-79
2023/01/01 09:01:58;;;;;;;27.45;3.20;;;11.00;99.90;;;;;;4990236;28;20046;-79
2023/01/01 09:04:24;;;;;;;27.65;3.28;;;10.90;99.90;;;;;;5005909;28;20551;-80
2023/01/01 09:06:50;;;;;;;27.40;3.65;;;10.90;99.90;;;;;;5009662;28;20092;-78
2023/01/01 09:09:16;;;;;;;24.88;3.05;;;11.50;99.90;;;;;;5009195;28;20058;-80
2023/01/01 09:11:50;;;;;;;23.83;2.97;;;10.90;99.90;;;;;;5009314;28;20132;-76
2023/01/01 09:14:16;;;;;;;27.13;3.10;;;11.50;99.90;;;;;;5009749;28;20076;-77
2023/01/01 09:16:41;;;;;;;26.15;3.35;;;11.00;99.90;;;;;;4990090;28;20058;-77
2023/01/01 09:19:07;;;;;;;26.48;3.45;;;11.00;99.90;;;;;;4988546;28;20045;-77
2023/01/01 09:21:33;;;;;;;22.60;3.05;;;10.90;99.90;;;;;;4988761;28;20427;-77
2023/01/01 09:23:58;;;;;;;25.40;3.28;;;10.90;99.90;;;;;;4989373;28;20034;-78
2023/01/01 09:26:24;;;;;;;30.35;3.65;;;10.90;99.90;;;;;;4989274;28;20062;-78
2023/01/01 09:28:50;;;;;;;18.02;2.88;;;10.90;99.90;;;;;;4988746;28;20128;-77
2023/01/01 09:31:15;;;;;;;17.20;2.88;;;10.90;99.90;;;;;;4989692;28;20528;-77
2023/01/01 09:33:41;;;;;;;24.92;3.17;;;10.90;99.90;;;;;;4989595;28;20046;-79
2023/01/01 09:36:24;;;;;;;16.05;3.22;;;11.50;99.90;;;;;;4989543;28;20038;-79
2023/01/01 09:38:52;;;;;;;25.80;4.68;;;10.90;99.90;;;;;;4989344;28;20074;-78
2023/01/01 09:41:59;;;;;;;16.77;3.60;;;10.90;99.90;;;;;;4989423;28;20370;-76
2023/01/01 09:44:43;;;;;;;24.42;3.20;;;10.90;99.90;;;;;;4990728;28;20136;-76
2023/01/01 09:47:28;;;;;;;27.48;3.75;;;10.90;99.90;;;;;;5000960;28;20045;-75
2023/01/01 09:50:00;;;;;;;20.38;3.20;;;11.00;99.90;;;;;;4991027;28;20110;-78
2023/01/01 09:52:52;;;;;;;17.42;2.88;;;11.00;99.90;;;;;;4995873;28;20489;-77
2023/01/01 09:55:26;;;;;;;23.48;2.97;;;11.00;99.90;;;;;;4998702;28;20046;-78
2023/01/01 09:57:54;;;;;;;27.92;3.67;;;11.00;99.90;;;;;;5003765;28;20054;-78
2023/01/01 10:00:20;;;;;;;24.83;3.45;;;11.20;99.90;;;;;;5009108;28;20050;-78
2023/01/01 10:03:11;;;;;;;20.17;2.78;;;11.00;99.90;;;;;;4990669;28;20069;-78
2023/01/01 10:05:57;;;;;;;23.10;3.30;;;11.40;99.90;;;;;;5007930;28;20100;-77
2023/01/01 10:08:41;;;;;;;23.98;3.67;;;11.10;99.90;;;;;;5047814;28;20057;-78
2023/01/01 10:11:16;;;;;;;22.05;2.80;;;11.10;99.90;;;;;;5030787;28;20064;-78
2023/01/01 10:13:44;;;;;;;28.58;4.25;;;11.70;99.90;;;;;;5048335;28;20057;-78
2023/01/01 10:16:17;;;;;;;27.48;3.50;;;11.20;99.90;;;;;;5048653;28;20387;-78
2023/01/01 10:18:46;;;;;;;20.95;3.45;;;11.20;99.90;;;;;;5048064;28;20058;-78
2023/01/01 10:21:22;;;;;;;23.63;3.13;;;11.20;99.90;;;;;;5031833;28;20182;-80
2023/01/01 10:24:00;;;;;;;21.35;2.83;;;11.30;99.90;;;;;;5031962;28;20060;-79
2023/01/01 10:26:30;;;;;;;21.52;2.97;;;11.50;99.90;;;;;;5048181;28;20048;-78
2023/01/01 10:29:17;;;;;;;20.15;2.88;;;11.60;99.90;;;;;;5031612;28;20060;-78
2023/01/01 10:31:46;;;;;;;23.73;3.40;;;11.50;99.90;;;;;;5031753;28;20084;-80
2023/01/01 10:34:25;;;;;;;31.13;3.92;;;11.50;99.90;;;;;;5048102;28;20124;-79
2023/01/01 10:36:58;;;;;;;24.95;3.60;;;11.50;99.90;;;;;;5048303;28;20091;-78
2023/01/01 10:39:25;;;;;;;20.73;2.55;;;12.00;99.90;;;;;;5048309;28;20573;-80
2023/01/01 10:41:51;;;;;;;15.57;2.67;;;11.50;99.90;;;;;;5048175;28;20045;-78
2023/01/01 10:44:29;;;;;;;23.50;2.75;;;11.50;99.90;;;;;;5046491;28;20044;-81
2023/01/01 10:47:23;;;;;;;23.90;2.70;;;11.40;99.90;;;;;;5006465;28;20049;-78
2023/01/01 10:50:06;;;;;;;19.00;3.10;;;11.40;99.90;;;;;;5008563;28;20064;-79
2023/01/01 10:52:39;;;;;;;17.35;2.88;;;11.40;99.90;;;;;;5007694;28;20146;-78
2023/01/01 10:55:17;;;;;;;21.25;3.38;;;11.80;99.90;;;;;;5008239;28;20052;-78
2023/01/01 10:57:43;;;;;;;16.27;2.72;;;11.50;99.90;;;;;;5007933;28;20056;-77
2023/01/01 11:00:24;;;;;;;19.88;3.47;;;11.70;99.90;;;;;;5003355;28;20455;-77
2023/01/01 11:03:19;;;;;;;20.50;2.50;;;11.50;99.90;;;;;;4998232;28;20477;-79
2023/01/01 11:06:02;;;;;;;23.08;2.83;;;11.50;99.90;;;;;;4988930;28;20065;-79
2023/01/01 11:08:30;;;;;;;15.55;2.63;;;11.80;99.90;;;;;;4987254;28;20089;-80
2023/01/01 11:11:00;;;;;;;13.38;3.20;;;11.80;99.90;;;;;;4989801;28;20460;-75
2023/01/01 11:13:28;;;;;;;16.73;2.47;;;11.40;99.90;;;;;;5001088;28;20409;-80
2023/01/01 11:15:54;;;;;;;15.30;2.33;;;11.40;99.90;;;;;;5001709;28;20054;-78
2023/01/01 11:18:24;;;;;;;14.93;2.60;;;11.80;99.90;;;;;;5000725;28;20054;-78
2023/01/01 11:20:57;;;;;;;16.50;2.53;;;11.40;99.90;;;;;;5007602;28;20614;-77
2023/01/01 11:23:35;;;;;;;16.17;2.40;;;11.50;99.90;;;;;;5005310;28;20448;-77
2023/01/01 11:26:12;;;;;;;16.02;2.33;;;11.50;99.90;;;;;;5000905;28;20135;-77
2023/01/01 11:28:39;;;;;;;14.48;2.90;;;11.40;99.90;;;;;;5019588;28;20400;-76
2023/01/01 11:31:23;;;;;;;21.52;2.28;;;11.30;99.90;;;;;;5002210;28;20045;-78
2023/01/01 11:33:55;;;;;;;14.87;2.03;;;12.10;99.90;;;;;;5005523;28;20042;-77
2023/01/01 11:36:32;;;;;;;22.02;2.83;;;11.90;99.90;;;;;;5000940;28;20052;-76
2023/01/01 11:39:19;;;;;;;14.23;2.28;;;11.90;99.90;;;;;;5013583;28;20073;-77
2023/01/01 11:41:56;;;;;;;14.43;2.65;;;11.30;99.90;;;;;;5007732;28;20041;-78
2023/01/01 11:44:34;;;;;;;9.77;1.88;;;11.80;99.90;;;;;;5002873;28;20077;-77
2023/01/01 11:47:00;;;;;;;16.42;2.00;;;11.30;99.90;;;;;;5000978;28;20069;-76
2023/01/01 11:49:28;;;;;;;16.65;2.53;;;11.90;99.90;;;;;;5011201;28;20041;-76
2023/01/01 11:51:54;;;;;;;13.43;2.00;;;11.50;99.90;;;;;;4996309;28;20114;-77
2023/01/01 11:54:37;;;;;;;18.60;2.63;;;11.30;99.90;;;;;;5028931;28;20482;-77
2023/01/01 11:57:15;;;;;;;13.70;1.85;;;11.40;99.90;;;;;;5007954;28;20075;-76
2023/01/01 11:59:57;;;;;;;16.67;2.38;;;11.40;99.90;;;;;;5007912;28;20046;-76
2023/01/01 12:02:37;;;;;;;23.52;3.20;;;11.50;99.90;;;;;;5003565;28;20077;-77
2023/01/01 12:05:23;;;;;;;17.40;2.70;;;11.80;99.90;;;;;;4999014;28;20087;-78
2023/01/01 12:07:50;;;;;;;20.48;2.67;;;11.50;99.90;;;;;;4999303;28;20112;-75
2023/01/01 12:10:24;;;;;;;18.48;3.38;;;11.60;99.90;;;;;;5009152;28;20038;-81
2023/01/01 12:12:57;;;;;;;20.60;2.87;;;11.60;99.90;;;;;;5010412;28;20096;-77
2023/01/01 12:15:56;;;;;;;15.90;2.60;;;11.70;99.90;;;;;;5004543;28;20344;-75
2023/01/01 12:18:30;;;;;;;16.40;1.98;;;11.60;99.90;;;;;;5002302;28;20146;-76
2023/01/01 12:21:07;;;;;;;15.63;2.33;;;11.70;99.90;;;;;;5010665;28;20517;-75
2023/01/01 12:23:33;;;;;;;16.80;2.30;;;11.60;99.90;;;;;;5013677;28;20042;-74
2023/01/01 12:26:12;;;;;;;18.23;2.75;;;11.60;99.90;;;;;;5006643;28;20527;-79
2023/01/01 12:29:22;;;;;;;15.52;2.42;;;11.60;99.90;;;;;;5005421;28;20396;-78
2023/01/01 12:31:57;;;;;;;14.57;2.30;;;11.60;99.90;;;;;;5042042;28;20052;-78
2023/01/01 12:34:58;;;;;;;;;;;11.70;99.90;;;;;;5043766;28;20049;-80
2023/01/01 12:37:45;;;;;;;18.73;2.95;;;11.70;99.90;;;;;;4989216;28;20026;-79
2023/01/01 12:40:50;;;;;;;14.68;2.60;;;11.80;99.90;;;;;;4974858;28;20075;-79
2023/01/01 12:43:33;;;;;;;14.48;2.20;;;11.80;99.90;;;;;;4988177;28;20101;-79
2023/01/01 12:46:12;;;;;;;17.90;2.63;;;11.80;99.90;;;;;;4971682;28;20076;-78
2023/01/01 12:49:15;;;;;;;18.25;2.78;;;11.80;99.90;;;;;;4975239;28;20055;-76
2023/01/01 12:52:07;;;;;;;21.48;2.75;;;11.80;99.90;;;;;;4955529;28;20062;-78
2023/01/01 12:54:58;;;;;;;16.73;2.20;;;11.80;99.90;;;;;;4984086;28;20069;-79
2023/01/01 12:57:29;;;;;;;16.15;3.25;;;11.80;99.90;;;;;;4979696;28;20086;-76
2023/01/01 12:59:56;;;;;;;20.15;2.58;;;11.80;99.90;;;;;;4974278;28;20520;-77